^^

Nearby METAR Reports


EGAC - Belfast Harbour, United Kingdom
Distance from station: W 8mi, 13km
Updated: 24/06/2018 09:20
Clear
Clear
 Wind from varies
Wind: varies 3 mph , 6 km/h
Temperature: 16°C
Dew Point: 10°C
Humidity: 68%
Barometer: 1026 hPa
Clouds: Clear
Visibility: 6 miles , 10 km
2018/06/24 08:20 EGAC 240820Z AUTO VRB03KT 9999 NCD 16/10 Q1026
EGAA - Belfast/Aldergro, United Kingdom
Distance from station: W 22mi, 35km
Updated: 24/06/2018 09:20
Clear
Clear
 Wind from SW
Wind: SW 5 mph , 7 km/h
Temperature: 16°C
Dew Point: 10°C
Humidity: 68%
Barometer: 1026 hPa
Summary: Clear
Visibility: greater than 7 miles , 10 km
2018/06/24 08:20 EGAA 240820Z 22004KT 140V280 CAVOK 16/10 Q1026
 
EGNS - Isle Of Man/Rona, United Kingdom
Distance from station: SE 57mi, 91km
Updated: 24/06/2018 09:20
Clear
Clear
 Wind from varies
Wind: varies 3 mph , 6 km/h
Temperature: 16°C
Dew Point: 8°C
Humidity: 59%
Barometer: 1026 hPa
Summary: Clear
Visibility: greater than 7 miles , 10 km
2018/06/24 08:20 EGNS 240820Z VRB03KT CAVOK 16/08 Q1026 NOSIG
EGPK - Prestwick(Civ/Na, United Kingdom
Distance from station: NE 74mi, 119km
Updated: 24/06/2018 09:20
Few Clouds
Few Clouds
 Wind from varies
Wind: varies 3 mph , 6 km/h
Temperature: 14°C
Dew Point: 9°C
Humidity: 72%
Barometer: 1027 hPa
Clouds: Few Clouds
Visibility: 6 miles , 10 km
Cloud details: Few Clouds 1067 m
2018/06/24 08:20 EGPK 240820Z VRB03KT 9999 FEW035 14/09 Q1027
 
EIDW - Dublin Airport, Ireland
Distance from station: SSW 87mi, 141km
Updated: 24/06/2018 09:30
Clear
Clear
 Wind from varies
Wind: varies 3 mph , 6 km/h
Temperature: 18°C
Dew Point: 10°C
Humidity: 60%
Barometer: 1026 hPa
Summary: Clear
Visibility: greater than 7 miles , 10 km
2018/06/24 08:30 EIDW 240830Z VRB03KT CAVOK 18/10 Q1026 NOSIG
EGPF - Glasgow Airport, United Kingdom
Distance from station: NNE 98mi, 158km
Updated: 24/06/2018 09:20
Clear
Clear
 Wind from W
Wind: W 10 mph , 17 km/h
Temperature: 15°C
Dew Point: 8°C
Humidity: 63%
Barometer: 1026 hPa
Clouds: Clear
Visibility: 6 miles , 10 km
2018/06/24 08:20 EGPF 240820Z AUTO 27009KT 9999 NCD 15/08 Q1026